Terminal Aerodrome Forecast
Issued by NWS

Home | Current Version | Previous Version | Text Only | Print | Product List | Glossary On
Versions: 1 2 3 4 5 6 7 8 9 10 11 12 13 14
695
FTUS42 KMLB 221331 AAA
TAFISM
TAF AMD
KISM 221331Z 2214/2312 20015G25KT P6SM SCT015 BKN035
      TEMPO 2214/2216 BKN015
     FM222200 21020G30KT P6SM VCTS BKN035CB
      TEMPO 2223/2301 25020G40KT 2SM +TSRA
     FM230100 23015G25KT P6SM -RA VCTS BKN035CB
     FM230600 22015KT P6SM BKN035=

USA.gov is the U.S. government's official web portal to all federal, state and local government web resources and services.